createdAt,value
2023-05-19T00:00:07.084Z,3.3
2023-05-19T00:03:04.878Z,3.38
2023-05-19T00:06:03.275Z,3.44
2023-05-19T00:09:04.723Z,3.1800000000000006
2023-05-19T00:12:01.237Z,2.8200000000000003
2023-05-19T00:14:57.823Z,2.96
2023-05-19T00:17:55.553Z,3.04
2023-05-19T00:20:51.953Z,2.6399999999999997
2023-05-19T00:23:47.530Z,2.8000000000000003
2023-05-19T00:26:43.060Z,2.92
2023-05-19T00:29:38.668Z,2.8999999999999995
2023-05-19T00:32:35.248Z,3.3
2023-05-19T00:35:30.764Z,3.9
2023-05-19T00:38:27.290Z,3.4799999999999995
2023-05-19T00:41:22.919Z,3.7400000000000007
2023-05-19T00:44:18.427Z,3.3
2023-05-19T00:47:13.977Z,3.54
2023-05-19T00:50:10.540Z,3.7800000000000002
2023-05-19T00:53:07.102Z,3.4
2023-05-19T00:56:04.676Z,3.84
2023-05-19T00:59:02.267Z,3.9
2023-05-19T01:01:58.771Z,4.1
2023-05-19T01:04:57.349Z,4.2
2023-05-19T01:07:54.909Z,3.5200000000000005
2023-05-19T01:10:50.483Z,3.6199999999999997
2023-05-19T01:13:46.998Z,3.44
2023-05-19T01:16:51.712Z,3.4
2023-05-19T01:20:02.143Z,3.5
2023-05-19T01:23:17.563Z,3.88
2023-05-19T01:26:33.114Z,3.0599999999999996
2023-05-19T01:29:42.640Z,3.46
2023-05-19T01:32:41.245Z,3.0599999999999996
2023-05-19T01:35:38.735Z,3.3600000000000003
2023-05-19T01:38:37.311Z,3.2800000000000002
2023-05-19T01:41:36.836Z,3.56
2023-05-19T01:44:33.427Z,3.3600000000000003
2023-05-19T01:47:28.956Z,2.96
2023-05-19T01:50:25.551Z,2.9
2023-05-19T01:53:21.076Z,2.7600000000000002
2023-05-19T01:56:22.611Z,2.84
2023-05-19T01:59:28.229Z,3.1800000000000006
2023-05-19T02:02:29.761Z,2.8000000000000003
2023-05-19T02:05:34.252Z,2.66
2023-05-19T02:08:38.796Z,3
2023-05-19T02:11:37.330Z,2.32
2023-05-19T02:14:37.875Z,2.02
2023-05-19T02:17:36.539Z,2.5
2023-05-19T02:20:33.401Z,2.52
2023-05-19T02:23:28.583Z,2.6799999999999997
2023-05-19T02:26:24.125Z,2.5
2023-05-19T02:29:20.719Z,1.78
2023-05-19T02:32:18.796Z,2.2600000000000002
2023-05-19T02:35:16.813Z,2.04
2023-05-19T02:38:13.366Z,2.02
2023-05-19T02:41:08.881Z,2.04
2023-05-19T02:44:05.479Z,2.0599999999999996
2023-05-19T02:47:03.055Z,1.5
2023-05-19T02:49:58.592Z,2.64
2023-05-19T02:52:54.153Z,2.0599999999999996
2023-05-19T02:55:49.728Z,1.6600000000000001
2023-05-19T02:58:45.308Z,1.9600000000000002
2023-05-19T03:01:41.893Z,1.9
2023-05-19T03:04:41.374Z,1.92
2023-05-19T03:07:37.980Z,1.8
2023-05-19T03:10:35.491Z,1.9
2023-05-19T03:13:32.077Z,2.1399999999999997
2023-05-19T03:16:29.688Z,1.78
2023-05-19T03:22:31.734Z,1.9
2023-05-19T03:25:27.301Z,1.7
2023-05-19T03:28:22.805Z,2.16
2023-05-19T03:31:21.399Z,1.8800000000000001
2023-05-19T03:34:17.027Z,1.72
2023-05-19T03:37:12.491Z,1.78
2023-05-19T03:40:10.094Z,1.5399999999999998
2023-05-19T03:43:06.640Z,1.8199999999999998
2023-05-19T03:46:02.343Z,1.6
2023-05-19T03:48:58.758Z,1.86
2023-05-19T03:51:54.318Z,1.9
2023-05-19T03:54:50.899Z,1.44
2023-05-19T03:57:47.442Z,1.72
2023-05-19T04:00:44.016Z,1.4
2023-05-19T04:03:40.627Z,1.6400000000000001
2023-05-19T04:06:37.109Z,1.4
2023-05-19T04:09:34.690Z,1.6
2023-05-19T04:12:30.276Z,1.6400000000000001
2023-05-19T04:15:25.794Z,1.92
2023-05-19T04:18:21.358Z,1.7
2023-05-19T04:21:16.913Z,1.6800000000000002
2023-05-19T04:24:13.499Z,1.94
2023-05-19T04:27:12.153Z,1.9
2023-05-19T04:30:08.599Z,2.36
2023-05-19T04:33:05.224Z,1.56
2023-05-19T04:36:04.690Z,1.6
2023-05-19T04:39:02.249Z,1.6600000000000001
2023-05-19T04:41:57.831Z,1.7399999999999998
2023-05-19T04:44:53.371Z,1.94
2023-05-19T04:47:49.951Z,2.1399999999999997
2023-05-19T04:50:48.507Z,1.9
2023-05-19T04:53:44.053Z,1.8800000000000001
2023-05-19T04:56:41.633Z,1.6800000000000002
2023-05-19T04:59:38.187Z,2.12
2023-05-19T05:02:36.880Z,2.22
2023-05-19T05:05:32.319Z,2.28
2023-05-19T05:08:29.848Z,1.8400000000000003
2023-05-19T05:11:26.398Z,1.8199999999999998
2023-05-19T05:14:22.988Z,1.9
2023-05-19T05:17:20.586Z,1.5799999999999998
2023-05-19T05:20:17.084Z,2.0599999999999996
2023-05-19T05:23:14.706Z,1.5
2023-05-19T05:26:15.182Z,1.8800000000000001
2023-05-19T05:29:10.761Z,2
2023-05-19T05:32:11.337Z,1.8400000000000003
2023-05-19T05:35:09.854Z,1.7
2023-05-19T05:38:06.422Z,1.8
2023-05-19T05:41:02.965Z,1.6800000000000002
2023-05-19T05:43:58.509Z,1.6400000000000001
2023-05-19T05:46:55.137Z,2.02
2023-05-19T05:49:53.481Z,1.7399999999999998
2023-05-19T05:52:50.174Z,2.2600000000000002
2023-05-19T05:55:47.779Z,1.6800000000000002
2023-05-19T05:58:43.332Z,2.1
2023-05-19T06:01:43.892Z,1.8
2023-05-19T06:04:40.445Z,1.9
2023-05-19T06:07:36.974Z,2.16
2023-05-19T06:10:33.152Z,2.0799999999999996
2023-05-19T06:13:29.110Z,1.86
2023-05-19T06:16:25.795Z,1.6800000000000002
2023-05-19T06:19:21.293Z,1.86
2023-05-19T06:22:17.798Z,2.52
2023-05-19T06:25:13.367Z,1.8800000000000001
2023-05-19T06:28:08.907Z,1.8
2023-05-19T06:31:04.478Z,2.1
2023-05-19T06:34:00.054Z,2.48
2023-05-19T06:36:55.555Z,2.2
2023-05-19T06:39:52.156Z,2.2600000000000002
2023-05-19T06:42:47.727Z,1.8800000000000001
2023-05-19T06:45:43.260Z,2.8000000000000003
2023-05-19T06:48:38.796Z,2.6
2023-05-19T06:51:35.460Z,2.72
2023-05-19T06:54:30.951Z,2.16
2023-05-19T06:57:26.485Z,2.2399999999999998
2023-05-19T07:00:24.232Z,2.52
2023-05-19T07:03:19.736Z,2.3
2023-05-19T07:06:16.192Z,2.54
2023-05-19T07:09:12.736Z,1.92
2023-05-19T07:12:08.276Z,2.52
2023-05-19T07:15:04.861Z,2.3600000000000003
2023-05-19T07:18:00.515Z,2.1399999999999997
2023-05-19T07:20:57.007Z,2.72
2023-05-19T07:23:52.584Z,2.88
2023-05-19T07:26:48.105Z,2.66
2023-05-19T07:29:43.726Z,2.48
2023-05-19T07:32:39.231Z,2.1
2023-05-19T07:35:34.838Z,2.6599999999999997
2023-05-19T07:38:31.427Z,2.42
2023-05-19T07:41:26.893Z,2.92
2023-05-19T07:44:23.505Z,2.7199999999999998
2023-05-19T07:47:19.067Z,2.6800000000000006
2023-05-19T07:50:14.650Z,2.8600000000000003
2023-05-19T07:53:10.164Z,3.0599999999999996
2023-05-19T07:56:06.712Z,3.3
2023-05-19T07:59:03.295Z,2.84
2023-05-19T08:01:59.829Z,2.56
2023-05-19T08:04:56.535Z,2.8200000000000003
2023-05-19T08:07:51.961Z,3.1399999999999997
2023-05-19T08:10:47.527Z,2.6
2023-05-19T08:13:43.086Z,3
2023-05-19T08:16:41.651Z,2.7800000000000002
2023-05-19T08:19:39.159Z,2.8400000000000003
2023-05-19T08:22:35.798Z,2.8200000000000003
2023-05-19T08:25:31.326Z,3.1399999999999997
2023-05-19T08:28:26.890Z,3.3600000000000003
2023-05-19T08:31:24.463Z,2.68
2023-05-19T08:34:20.058Z,3.04
2023-05-19T08:37:16.539Z,3.46
2023-05-19T08:40:16.121Z,3.22
2023-05-19T08:43:12.694Z,3.12
2023-05-19T08:46:13.289Z,3.2800000000000002
2023-05-19T08:49:12.730Z,3.0599999999999996
2023-05-19T08:52:17.308Z,3.34
2023-05-19T08:55:21.856Z,2.46
2023-05-19T08:58:20.405Z,2.54
2023-05-19T09:01:17.161Z,2.9
2023-05-19T09:04:13.628Z,3.16
2023-05-19T09:07:13.107Z,2.84
2023-05-19T09:10:08.636Z,3.1000000000000005
2023-05-19T09:13:06.187Z,3.2
2023-05-19T09:16:03.810Z,3.9
2023-05-19T09:19:00.356Z,3.0599999999999996
2023-05-19T09:22:00.851Z,3.38
2023-05-19T09:24:58.407Z,3.2800000000000002
2023-05-19T09:27:54.946Z,2.8600000000000003
2023-05-19T09:30:55.495Z,2.94
2023-05-19T09:33:53.056Z,3.4
2023-05-19T09:36:49.673Z,3.6
2023-05-19T09:39:49.182Z,4.2
2023-05-19T09:42:48.770Z,3.28
2023-05-19T09:45:44.325Z,3.66
2023-05-19T09:48:39.836Z,3.16
2023-05-19T09:51:37.420Z,3.6
2023-05-19T09:54:34.974Z,3.94
2023-05-19T09:57:34.527Z,3.44
2023-05-19T10:00:31.254Z,3.56
2023-05-19T10:03:29.613Z,3.9
2023-05-19T10:06:26.190Z,3.7600000000000002
2023-05-19T10:09:24.784Z,3.1399999999999997
2023-05-19T10:12:21.300Z,3.3200000000000003
2023-05-19T10:15:17.857Z,2.8200000000000003
2023-05-19T10:18:16.422Z,3.7600000000000002
2023-05-19T10:21:13.968Z,2.6
2023-05-19T10:24:11.404Z,2.92
2023-05-19T10:27:10.096Z,3.04
2023-05-19T10:30:12.764Z,4.88
2023-05-19T10:33:13.210Z,2.8
2023-05-19T10:36:22.736Z,3.54
2023-05-19T10:39:25.269Z,2.88
2023-05-19T10:42:29.804Z,3.5200000000000005
2023-05-19T10:45:34.641Z,3.0799999999999996
2023-05-19T10:48:33.951Z,3.28
2023-05-19T10:51:31.508Z,43.46
2023-05-19T10:54:38.981Z,7.659999999999999
2023-05-19T10:57:36.524Z,3.56
2023-05-19T11:00:42.064Z,4.5200000000000005
2023-05-19T11:03:46.615Z,3.62
2023-05-19T11:06:51.144Z,3.3
2023-05-19T11:09:49.688Z,3.9200000000000004
2023-05-19T11:12:52.055Z,3.6799999999999997
2023-05-19T11:15:49.793Z,3.7199999999999998
2023-05-19T11:18:49.363Z,2.94
2023-05-19T11:21:49.887Z,3.16
2023-05-19T11:24:53.421Z,2.94
2023-05-19T11:27:52.040Z,3.16
2023-05-19T11:30:54.555Z,3.1399999999999997
2023-05-19T11:33:52.084Z,3.16
2023-05-19T11:36:50.667Z,2.72
2023-05-19T11:39:48.192Z,2.92
2023-05-19T11:42:44.776Z,3.62
2023-05-19T11:45:41.322Z,3.34
2023-05-19T11:48:37.960Z,3.2600000000000002
2023-05-19T11:51:33.433Z,2.8400000000000003
2023-05-19T11:54:31.006Z,3.2
2023-05-19T11:57:26.594Z,3.7
2023-05-19T12:00:26.132Z,3.8
2023-05-19T12:03:22.892Z,3.28
2023-05-19T12:06:20.228Z,3.8200000000000003
2023-05-19T12:09:16.811Z,3.9799999999999995
2023-05-19T12:12:13.358Z,4.119999999999999
2023-05-19T12:15:09.874Z,3.2600000000000002
2023-05-19T12:18:06.488Z,6.4799999999999995
2023-05-19T12:21:05.018Z,3.44
2023-05-19T12:24:03.575Z,3
2023-05-19T12:27:04.101Z,3.22
2023-05-19T12:30:00.698Z,3.28
2023-05-19T12:32:57.257Z,3.5799999999999996
2023-05-19T12:35:54.795Z,2.96
2023-05-19T12:38:53.337Z,2.9
2023-05-19T12:41:49.900Z,3.04
2023-05-19T12:44:47.477Z,3.0799999999999996
2023-05-19T12:47:48.035Z,3.0799999999999996
2023-05-19T12:50:44.573Z,2.56
2023-05-19T12:53:42.130Z,2.72
2023-05-19T12:56:48.681Z,2.6800000000000006
2023-05-19T12:59:50.238Z,2.7600000000000002
2023-05-19T13:02:55.870Z,2.8
2023-05-19T13:05:51.333Z,2.6800000000000006
2023-05-19T13:08:47.872Z,2.46
2023-05-19T13:11:44.437Z,3.1
2023-05-19T13:14:41.978Z,2.6
2023-05-19T13:17:37.522Z,2.62
2023-05-19T13:20:34.277Z,2.8000000000000003
2023-05-19T13:23:29.670Z,2.54
2023-05-19T13:26:25.250Z,2.96
2023-05-19T13:29:20.835Z,2.38
2023-05-19T13:32:21.323Z,2.1800000000000006
2023-05-19T13:35:16.912Z,2.32
2023-05-19T13:38:14.476Z,2.7800000000000002
2023-05-19T13:41:11.037Z,2.7400000000000007
2023-05-19T13:44:06.595Z,2.5599999999999996
2023-05-19T13:47:02.188Z,2.54
2023-05-19T13:49:57.724Z,2.4
2023-05-19T13:52:53.286Z,2.34
2023-05-19T13:55:48.826Z,2.6799999999999997
2023-05-19T13:58:47.406Z,2.2
2023-05-19T14:01:44.001Z,2.7199999999999998
2023-05-19T14:04:40.488Z,2.42
2023-05-19T14:07:38.073Z,2.7800000000000002
2023-05-19T14:10:33.862Z,2.8000000000000003
2023-05-19T14:13:34.424Z,2.7600000000000007
2023-05-19T14:16:31.916Z,2.92
2023-05-19T14:19:30.450Z,2.5
2023-05-19T14:22:25.817Z,2.3
2023-05-19T14:25:21.400Z,2.54
2023-05-19T14:28:16.908Z,2.32
2023-05-19T14:31:14.539Z,2.96
2023-05-19T14:34:11.093Z,2.6
2023-05-19T14:37:06.668Z,2.3
2023-05-19T14:40:04.168Z,2.4
2023-05-19T14:42:59.783Z,2.72
2023-05-19T14:45:55.294Z,2.46
2023-05-19T14:48:50.886Z,3.28
2023-05-19T14:51:46.470Z,2.48
2023-05-19T14:54:41.986Z,2.8600000000000003
2023-05-19T14:57:39.576Z,3.06
2023-05-19T15:00:35.325Z,3.16
2023-05-19T15:03:30.742Z,3.8
2023-05-19T15:06:26.246Z,3.1199999999999997
2023-05-19T15:09:21.814Z,3.3
2023-05-19T15:12:17.372Z,3.06
2023-05-19T15:15:13.944Z,2.82
2023-05-19T15:18:09.532Z,3.06
2023-05-19T15:21:06.031Z,3.28
2023-05-19T15:24:01.612Z,2.8
2023-05-19T15:26:58.157Z,3.46
2023-05-19T15:29:53.716Z,2.46
2023-05-19T15:32:49.321Z,3.7
2023-05-19T15:35:44.839Z,2.98
2023-05-19T15:38:40.651Z,3.56
2023-05-19T15:41:37.974Z,2.6399999999999997
2023-05-19T15:44:36.550Z,3.1399999999999997
2023-05-19T15:47:32.401Z,2.7600000000000002
2023-05-19T15:50:28.601Z,3.2400000000000007
2023-05-19T15:53:25.219Z,4.26
2023-05-19T15:56:21.778Z,3.2600000000000002
2023-05-19T15:59:18.349Z,4.040000000000001
2023-05-19T16:02:14.918Z,3.3400000000000007
2023-05-19T16:05:11.478Z,4.0600000000000005
2023-05-19T16:08:08.621Z,3.6800000000000006
2023-05-19T16:11:05.548Z,4.0200000000000005
2023-05-19T16:14:02.099Z,3.7800000000000002
2023-05-19T16:16:58.675Z,3.5
2023-05-19T16:19:55.242Z,3.6599999999999993
2023-05-19T16:22:50.800Z,3.56
2023-05-19T16:25:47.397Z,3.44
2023-05-19T16:28:42.900Z,3.78
2023-05-19T16:31:38.476Z,3.6399999999999997
2023-05-19T16:34:34.049Z,3.06
2023-05-19T16:37:29.592Z,3.38
2023-05-19T16:40:25.160Z,3.7600000000000002
2023-05-19T16:43:20.768Z,3.4799999999999995
2023-05-19T16:46:16.357Z,3.46
2023-05-19T16:49:11.833Z,3.72
2023-05-19T16:52:07.422Z,4.18
2023-05-19T16:55:02.941Z,4.64
2023-05-19T16:57:59.516Z,3.88
2023-05-19T17:00:56.077Z,3.9200000000000004
2023-05-19T17:03:51.705Z,4
2023-05-19T17:06:48.219Z,3.94
2023-05-19T17:09:43.788Z,3.2
2023-05-19T17:12:39.318Z,3.9200000000000004
2023-05-19T17:15:34.889Z,4.38
2023-05-19T17:18:31.477Z,3.9599999999999995
2023-05-19T17:21:27.009Z,4.46
2023-05-19T17:24:23.611Z,4.279999999999999
2023-05-19T17:27:19.141Z,5.840000000000001
2023-05-19T17:30:14.709Z,6.040000000000001
2023-05-19T17:33:10.318Z,5.56
2023-05-19T17:36:06.805Z,4.86
2023-05-19T17:39:09.372Z,5
2023-05-19T17:42:05.910Z,4.859999999999999
2023-05-19T17:45:03.464Z,5.460000000000001
2023-05-19T17:47:59.113Z,8.66
2023-05-19T17:50:54.616Z,11.720000000000002
2023-05-19T17:53:50.175Z,25.2
2023-05-19T17:56:46.698Z,20.060000000000002
2023-05-19T17:59:42.345Z,16.22
2023-05-19T18:02:39.984Z,11.76
2023-05-19T18:05:37.414Z,11.18
2023-05-19T18:08:38.938Z,7.94
2023-05-19T18:11:35.500Z,5.78
2023-05-19T18:14:31.062Z,5.28
2023-05-19T18:17:26.744Z,9.5
2023-05-19T18:20:22.206Z,9.64
2023-05-19T18:23:20.366Z,14.260000000000002
2023-05-19T18:26:21.289Z,30.859999999999996
2023-05-19T18:29:16.864Z,24.86
2023-05-19T18:32:15.506Z,17.119999999999997
2023-05-19T18:35:10.970Z,11.559999999999999
2023-05-19T18:38:06.524Z,11.239999999999998
2023-05-19T18:41:02.093Z,8.38
2023-05-19T18:44:05.651Z,7.5600000000000005
2023-05-19T18:47:01.202Z,6.14
2023-05-19T18:49:56.758Z,6.26
2023-05-19T18:52:54.326Z,5.9799999999999995
2023-05-19T18:55:49.873Z,5.76
2023-05-19T18:58:45.542Z,6.42
2023-05-19T19:01:42.037Z,6.359999999999999
2023-05-19T19:04:37.625Z,4.720000000000001
2023-05-19T19:07:33.143Z,7.0200000000000005
2023-05-19T19:10:29.685Z,7
2023-05-19T19:13:26.240Z,6.720000000000001
2023-05-19T19:16:22.929Z,5.8
2023-05-19T19:19:18.465Z,6.2
2023-05-19T19:22:13.926Z,6.4
2023-05-19T19:25:09.479Z,5.779999999999999
2023-05-19T19:28:07.061Z,5.58
2023-05-19T19:31:02.602Z,5.82
2023-05-19T19:34:03.181Z,5.62
2023-05-19T19:36:58.685Z,5.74
2023-05-19T19:39:54.239Z,5.3
2023-05-19T19:42:49.809Z,6.540000000000001
2023-05-19T19:45:45.394Z,5.640000000000001
2023-05-19T19:48:41.956Z,5.46
2023-05-19T19:51:37.530Z,6.459999999999999
2023-05-19T19:54:34.096Z,6.68
2023-05-19T19:57:33.633Z,6.5600000000000005
2023-05-19T20:00:35.453Z,6.68
2023-05-19T20:03:32.872Z,7.040000000000001
2023-05-19T20:06:29.304Z,6.7
2023-05-19T20:09:26.811Z,6.42
2023-05-19T20:12:22.424Z,6.32
2023-05-19T20:15:19.021Z,5.84
2023-05-19T20:18:15.530Z,5.9399999999999995
2023-05-19T20:21:11.098Z,6.1
2023-05-19T20:24:06.672Z,7.12
2023-05-19T20:27:03.210Z,6.0200000000000005
2023-05-19T20:29:58.779Z,6.32
2023-05-19T20:32:56.377Z,6.959999999999999
2023-05-19T20:35:51.887Z,7.26
2023-05-19T20:38:47.474Z,7.38
2023-05-19T20:41:43.017Z,7.5
2023-05-19T20:44:39.585Z,6.88
2023-05-19T20:47:36.172Z,7.040000000000001
2023-05-19T20:50:31.898Z,7.62
2023-05-19T20:53:27.233Z,7.340000000000001
2023-05-19T20:56:22.765Z,7.639999999999999
2023-05-19T20:59:18.400Z,6.640000000000001
2023-05-19T21:02:14.934Z,7.62
2023-05-19T21:05:10.540Z,7.5200000000000005
2023-05-19T21:08:12.083Z,7.32
2023-05-19T21:11:07.603Z,7.839999999999999
2023-05-19T21:14:04.505Z,8.379999999999999
2023-05-19T21:17:00.777Z,8.7
2023-05-19T21:19:59.328Z,7.3
2023-05-19T21:22:56.881Z,10.24
2023-05-19T21:25:52.382Z,8.040000000000001
2023-05-19T21:28:47.953Z,7.68
2023-05-19T21:31:43.540Z,8.679999999999998
2023-05-19T21:34:41.082Z,8.66
2023-05-19T21:37:37.648Z,8.24
2023-05-19T21:40:33.449Z,7.140000000000001
2023-05-19T21:43:29.791Z,7.42
2023-05-19T21:46:27.327Z,7.3
2023-05-19T21:49:23.879Z,6.5
2023-05-19T21:52:19.401Z,6.959999999999999
2023-05-19T21:55:16.011Z,7.159999999999999
2023-05-19T21:58:12.592Z,7.279999999999999
2023-05-19T22:01:08.119Z,6.720000000000001
2023-05-19T22:04:04.849Z,7.7
2023-05-19T22:07:01.247Z,6.540000000000001
2023-05-19T22:09:56.788Z,6.720000000000001
2023-05-19T22:12:52.341Z,6.519999999999999
2023-05-19T22:15:48.903Z,7.779999999999999
2023-05-19T22:18:45.487Z,7.460000000000001
2023-05-19T22:21:41.014Z,7.779999999999999
2023-05-19T22:24:36.554Z,7.260000000000001
2023-05-19T22:27:32.157Z,6.94
2023-05-19T22:30:27.702Z,7.840000000000001
2023-05-19T22:33:23.308Z,7.779999999999999
2023-05-19T22:36:18.843Z,27.119999999999997
2023-05-19T22:39:14.430Z,18.88
2023-05-19T22:42:10.985Z,12.379999999999999
2023-05-19T22:45:07.516Z,9.42
2023-05-19T22:48:03.135Z,11.419999999999998
2023-05-19T22:50:58.636Z,14.6
2023-05-19T22:53:54.203Z,19.5
2023-05-19T22:56:50.775Z,18.3
2023-05-19T22:59:49.317Z,13.460000000000003
2023-05-19T23:02:44.901Z,10.739999999999998
2023-05-19T23:05:42.455Z,9.559999999999999
2023-05-19T23:08:38.971Z,10.66
2023-05-19T23:11:40.517Z,10.319999999999999
2023-05-19T23:14:42.074Z,9.5
2023-05-19T23:17:42.672Z,10.84
2023-05-19T23:20:39.165Z,10.040000000000001
2023-05-19T23:23:36.768Z,9.16
2023-05-19T23:26:32.293Z,9.96
2023-05-19T23:29:27.846Z,28.619999999999997
2023-05-19T23:32:23.415Z,43.44
2023-05-19T23:35:20.049Z,30.759999999999998
2023-05-19T23:38:16.560Z,16.06
2023-05-19T23:41:12.104Z,10.379999999999999
2023-05-19T23:44:09.686Z,11.860000000000001
2023-05-19T23:47:06.291Z,12.2
2023-05-19T23:50:01.793Z,9.98
2023-05-19T23:52:57.346Z,9.56
2023-05-19T23:55:52.955Z,10.76
2023-05-19T23:58:48.463Z,10.8
